Weather observations for the past three days for
Antelope County Airport
Metric (Imperial)
Date Time (cdt) Wind (kph) Vis. (km) Weather Sky Cond. Temperature (ºC) Relative Humidity Wind Chill (°C) Heat Index (°C) Pressure Precipitation (cm)
Air Dwpt 6 hour altimeter (cm) sea level (mb) 1 hr 3 hr 6 hr
Max. Min.
06 04:15 W 13 16.09 Fair CLR 0 -4 75% -4 76.28 0.0
06 03:55 W 7 16.09 Fair CLR 0 -3 80% -2 76.28 0.0
06 03:35 W 9 16.09 Fair CLR 1 -4 70% -2 76.28 0.0
06 03:15 W 9 16.09 Fair CLR 1 -4 70% -2 76.28 0.0
06 02:55 W 9 16.09 Fair CLR 2 -3 70% -0 76.25 0.0
06 02:35 W 9 16.09 Fair CLR 2 -3 70% -0 76.28 0.0
06 02:15 NW 7 16.09 Fair CLR 3 -3 65% 1 76.28 0.0
06 01:55 NW 11 16.09 Fair CLR 3 -3 65% 0 76.28 0.0
06 01:35 NW 7 16.09 Fair CLR 3 -3 65% 1 76.25 0.0
06 01:15 W 7 16.09 Fair CLR 3 -3 65% 1 76.25 0.0
06 00:55 Calm 16.09 Fair CLR 4 -3 61% 76.25 0.0
06 00:35 W 9 16.09 Fair CLR 5 -4 53% 3 76.23 0.0
06 00:15 W 7 16.09 Fair CLR 5 -3 57% 4 76.23 0.0
05 23:55 Calm 16.09 Fair CLR 5 -4 53% 76.2 0.0
05 23:35 NW 6 16.09 Fair CLR 7 -5 43% 76.2 0.0
05 23:15 N 6 16.09 Fair CLR 7 -6 39% 76.2 0.0
05 22:55 N 7 16.09 Fair CLR 7 -6 39% 6 76.17 0.0
05 22:35 N 7 16.09 Fair CLR 8 -6 37% 7 76.17 0.0
05 22:15 N 7 16.09 Fair CLR 8 -6 37% 7 76.17 0.0
05 21:55 N 13 16.09 Fair CLR 8 -6 37% 6 76.15 0.0
05 21:35 N 15 16.09 Fair CLR 9 -6 34% 7 76.12 0.0
05 21:15 N 17 16.09 Fair CLR 9 -6 34% 7 76.1 0.0
05 20:55 N 17 16.09 Fair CLR 9 -6 34% 7 76.07 0.0
05 20:35 N 17 16.09 Fair CLR 10 -6 32% 8 76.05 0.0
05 19:55 N 22 16.09 Fair CLR 10 -6 32% 7 76.02 0.0
05 19:35 N 20 G 30 16.09 Fair CLR 10 -6 32% 8 76.02 0.0
05 19:15 N 24 G 37 16.09 Fair CLR 11 -6 30% 76.02 0.0
05 18:55 NW 30 16.09 Fair CLR 11 -6 30% 76 0.0
05 18:35 N 24 16.09 A Few Clouds FEW070 11 -6 30% 76 0.0
05 18:15 NW 30 16.09 A Few Clouds FEW075 12 -6 28% 76 0.0
05 17:50 NW 26 G 39 16.09 Partly Cloudy SCT075 12 -6 28% 76 0.0
05 17:35 NW 26 G 43 16.09 Partly Cloudy SCT075 12 -6 28% 76 0.0
05 17:15 NW 30 G 44 16.09 A Few Clouds FEW075 12 -6 28% 76 0.0
05 16:55 NW 22 G 41 16.09 Partly Cloudy SCT070 SCT080 12 -6 28% 76 0.0
05 16:35 NW 30 G 44 16.09 Mostly Cloudy BKN070 BKN080 12 -5 30% 76 0.0
05 16:15 N 28 G 48 16.09 Mostly Cloudy BKN070 BKN080 12 -5 30% 76.02 0.0
05 15:55 NW 24 G 46 16.09 Mostly Cloudy BKN070 12 -5 30% 76.02 0.0
05 15:35 NW 22 G 46 16.09 Partly Cloudy SCT070 13 -5 28% 76.02 0.0
05 15:15 N 31 16.09 Partly Cloudy SCT065 13 -5 28% 76.05 0.0
05 14:55 NW 26 G 35 16.09 Partly Cloudy SCT065 12 -4 33% 76.05 0.0
05 14:35 NW 20 G 33 16.09 A Few Clouds FEW065 12 -5 30% 76.05 0.0
05 14:15 NW 20 G 33 16.09 Partly Cloudy FEW065 SCT075 12 -4 33% 76.07 0.0
05 13:55 NW 19 G 33 16.09 A Few Clouds FEW060 FEW070 12 -4 33% 76.07 0.0
05 13:35 NW 30 16.09 Partly Cloudy SCT060 SCT070 13 -4 31% 76.07 0.0
05 13:15 NW 24 G 39 16.09 A Few Clouds FEW060 12 -4 33% 76.07 0.0
05 12:55 NW 22 G 39 16.09 Fair CLR 12 -4 33% 76.1 0.0
05 12:35 N 15 G 30 16.09 Partly Cloudy FEW055 SCT070 SCT075 11 -3 38% 76.1 0.0
05 12:15 N 17 G 33 16.09 Mostly Cloudy FEW055 BKN070 BKN075 10 -4 37% 8 76.12 0.0
05 11:55 NW 17 16.09 Partly Cloudy SCT070 SCT080 10 -3 40% 8 76.12 0.0
05 11:35 NW 11 G 28 16.09 A Few Clouds FEW075 9 -3 43% 8 76.12 0.0
05 11:15 N 13 16.09 A Few Clouds FEW075 9 -3 43% 7 76.12 0.0
05 10:55 Vrbl 7 G 28 16.09 Fair CLR 9 -3 43% 8 76.12 0.0
05 10:35 NW 17 16.09 Fair CLR 9 -3 43% 7 76.07 0.0
05 10:15 N 13 G 22 16.09 Fair CLR 8 -3 46% 6 76.07 0.0
05 09:55 N 19 16.09 Fair CLR 8 -3 46% 5 76.07 0.0
05 09:35 N 11 16.09 Fair CLR 8 -3 46% 6 76.07 0.0
05 09:15 N 11 16.09 Fair CLR 7 -1 57% 5 76.05 0.0
05 08:55 N 9 16.09 Partly Cloudy SCT100 7 -1 57% 5 76.02 0.0
05 08:15 N 11 16.09 A Few Clouds FEW120 6 -1 61% 4 76 0.0
05 07:55 NW 7 16.09 Fair CLR 6 1 71% 5 75.97 0.0
05 07:35 W 7 16.09 A Few Clouds FEW090 6 1 71% 5 75.97 0.0
05 07:15 W 6 16.09 Partly Cloudy FEW095 SCT120 6 1 71% 75.92 0.0
05 06:55 NW 9 16.09 Partly Cloudy SCT120 6 0 66% 4 75.92 0.0
05 06:35 NW 11 16.09 Partly Cloudy SCT120 5 2 81% 3 75.9 0.0
05 06:15 NW 11 16.09 A Few Clouds FEW110 4 1 81% 2 75.87 0.0
05 05:55 NW 9 16.09 Fair CLR 3 1 87% 1 75.87 0.0
05 05:35 W 7 16.09 Fair CLR 4 1 81% 2 75.87 0.0
05 04:55 W 9 16.09 A Few Clouds FEW120 5 1 76% 3 75.87 0.0
05 04:35 Calm 16.09 A Few Clouds FEW110 5 0 70% 75.84 0.0
05 04:15 Calm 16.09 Mostly Cloudy BKN110 7 -1 57% 75.84 0.0
05 03:55 N 7 16.09 Partly Cloudy SCT110 7 -1 57% 6 75.82 0.0
05 03:35 N 9 16.09 Fair CLR 7 0 61% 5 75.82 0.0
05 03:15 N 9 16.09 Fair CLR 7 0 61% 5 75.82 0.0
05 02:55 N 11 16.09 Fair CLR 7 0 61% 5 75.82 0.0
05 02:35 N 11 16.09 Fair CLR 7 0 61% 5 75.79 0.0
05 02:15 NW 11 16.09 Fair CLR 7 2 71% 5 75.77 0.0
05 01:55 NW 13 16.09 Fair CLR 7 2 71% 5 75.74 0.0
05 01:35 N 9 16.09 Fair CLR 7 3 76% 5 75.74 0.0
05 01:15 NW 11 16.09 Fair CLR 7 3 76% 5 75.72 0.0
05 00:55 NW 7 16.09 Fair CLR 7 2 71% 6 75.74 0.0
05 00:35 Calm 16.09 Fair CLR 7 2 71% 75.74 0.0
05 00:15 W 7 16.09 Fair CLR 7 2 71% 6 75.74 0.0
04 23:55 W 9 16.09 Fair CLR 8 3 71% 7 75.74 0.0
04 23:35 W 7 16.09 A Few Clouds FEW090 FEW120 9 3 66% 8 75.77 0.0
04 23:15 W 7 16.09 Mostly Cloudy BKN100 BKN120 10 3 62% 9 75.77 0.0
04 22:55 W 11 16.09 Overcast FEW075 OVC100 10 3 62% 9 75.77 0.0
04 22:35 W 9 16.09 Overcast BKN075 OVC095 11 3 58% 75.77 0.0
04 22:15 W 7 16.09 Overcast BKN075 OVC090 11 4 62% 75.77 0.0
04 21:55 NW 7 16.09 Overcast FEW060 BKN075 OVC095 11 3 58% 75.77 0.0
04 21:35 NW 7 16.09 Overcast FEW049 BKN060 OVC075 11 3 58% 75.74 0.0
04 21:15 N 9 16.09 Mostly Cloudy FEW043 SCT060 BKN070 11 3 58% 75.69 0.0
04 20:55 N 9 16.09 Overcast FEW032 SCT060 OVC070 12 3 54% 75.67 0.0
04 20:35 N 11 16.09 Overcast FEW060 SCT065 OVC075 12 2 51% 75.67 0.0
04 20:15 NW 17 G 30 16.09 Mostly Cloudy FEW043 SCT065 BKN075 13 2 47% 75.67 0.0
04 19:55 N 30 G 39 16.09 Overcast FEW046 BKN090 OVC110 13 1 44% 75.64 0.0
04 19:15 N 30 16.09 Partly Cloudy FEW085 SCT110 14 1 41% 75.64 0.0
04 18:55 N 26 16.09 Mostly Cloudy BKN085 15 1 39% 75.62 0.0
04 18:35 N 30 G 43 16.09 Mostly Cloudy FEW060 SCT080 BKN095 15 1 39% 75.62 0.0
04 18:15 N 28 G 39 16.09 Mostly Cloudy FEW080 BKN120 15 1 39% 75.62 0.0
04 17:55 N 22 G 39 16.09 Mostly Cloudy BKN120 15 2 42% 75.62 0.0
04 17:35 N 30 G 48 16.09 Partly Cloudy SCT120 15 2 42% 75.57 0.0
04 17:15 N 28 G 46 16.09 Fair CLR 17 1 34% 75.51 0.0
04 16:55 N 35 G 50 16.09 Fair and Breezy CLR 18 1 32% 75.49 0.0
04 16:35 N 44 G 57 16.09 Fair and Windy CLR 20 1 28% 75.46 0.0
04 16:15 N 33 G 50 16.09 Fair and Breezy CLR 20 1 28% 75.46 0.0
04 15:55 N 39 G 48 16.09 Fair and Breezy CLR 21 2 29% 75.46 0.0
04 15:35 N 26 G 50 16.09 Fair CLR 20 1 28% 75.46 0.0
04 15:15 N 26 G 48 16.09 Fair CLR 21 2 29% 75.46 0.0
04 14:55 N 37 16.09 Fair and Breezy CLR 21 2 29% 75.44 0.0
04 14:35 N 35 G 48 16.09 Fair and Breezy CLR 20 2 30% 75.44 0.0
04 14:15 NW 31 G 48 16.09 Fair CLR 21 2 29% 75.41 0.0
04 13:55 N 26 G 43 16.09 Fair CLR 20 2 30% 75.44 0.0
04 13:35 N 37 G 52 16.09 Fair and Breezy CLR 20 2 30% 75.41 0.0
04 13:15 N 37 G 52 16.09 Fair and Breezy CLR 20 2 30% 75.41 0.0
04 12:55 N 33 G 54 16.09 Fair and Breezy CLR 20 1 28% 75.41 0.0
04 12:35 N 26 G 43 16.09 Fair CLR 20 1 28% 75.41 0.0
04 12:15 N 31 G 50 16.09 Fair CLR 20 0 26% 75.41 0.0
04 11:55 N 31 G 43 16.09 Fair CLR 20 2 30% 75.41 0.0
04 11:35 N 19 G 41 16.09 Fair CLR 19 3 35% 75.41 0.0
04 11:15 N 30 G 44 16.09 Fair CLR 19 5 40% 75.39 0.0
04 10:55 N 30 G 41 16.09 Fair CLR 19 6 43% 75.36 0.0
04 10:35 NW 26 G 39 16.09 Fair CLR 18 7 49% 75.34 0.0
04 10:15 N 31 G 43 16.09 Fair CLR 19 7 46% 75.31 0.0
04 09:55 NW 35 16.09 Fair and Breezy CLR 19 6 43% 75.29 0.0
04 09:35 NW 31 16.09 Fair CLR 19 6 43% 75.26 0.0
04 09:15 NW 26 G 37 16.09 Fair CLR 19 7 46% 75.26 0.0
04 08:55 W 19 16.09 Fair CLR 18 6 46% 75.18 0.0
04 08:35 NW 19 16.09 Fair CLR 17 5 45% 75.21 0.0
04 08:15 Vrbl 11 16.09 Fair CLR 15 6 55% 75.21 0.0
04 07:55 Calm 16.09 Fair CLR 11 7 77% 75.21 0.0
04 07:35 Calm 16.09 Fair CLR 10 5 71% 75.21 0.0
04 07:15 NW 6 16.09 Fair CLR 10 5 71% 75.21 0.0
04 06:55 Calm 16.09 Fair CLR 8 5 82% 75.21 0.0
04 06:35 NW 9 16.09 Fair CLR 8 5 82% 7 75.23 0.0
04 06:15 Calm 16.09 Fair CLR 5 5 100% 75.23 0.0
04 05:55 Calm 16.09 Fair CLR 6 5 93% 75.23 0.0
04 05:35 Calm 16.09 Fair CLR 6 4 87% 75.23 0.0
04 05:15 Calm 16.09 Fair CLR 7 4 81% 75.26 0.0
04 04:55 Calm 16.09 Fair CLR 7 4 81% 75.29 0.0
04 04:35 Calm 16.09 Fair CLR 7 4 81% 75.29 0.0
04 04:15 Calm 16.09 Fair CLR 8 5 82% 75.29 0.0
04 03:55 Calm 16.09 Fair CLR 7 5 87% 75.31 0.0
04 03:35 Calm 16.09 Fair CLR 8 5 82% 75.31 0.0
04 03:15 Calm 16.09 Fair CLR 8 5 82% 75.31 0.0
04 02:55 Calm 16.09 Fair CLR 8 6 87% 75.34 0.0
04 02:35 NW 6 16.09 Fair CLR 8 6 87% 75.34 0.0
04 02:15 Calm 16.09 Fair CLR 9 6 82% 75.34 0.0
04 01:55 Calm 16.09 Fair CLR 10 5 71% 75.36 0.0
04 01:35 Calm 16.09 Fair CLR 10 5 71% 75.39 0.0
04 01:15 Calm 16.09 Fair CLR 11 5 67% 75.41 0.0
04 00:55 Calm 16.09 A Few Clouds FEW120 10 6 76% 75.41 0.0
04 00:35 E 7 16.09 Fair CLR 9 6 82% 8 75.41 0.0
04 00:15 Calm 16.09 Fair CLR 10 5 71% 75.46 0.0
03 23:55 Calm 16.09 Fair CLR 12 5 63% 75.49 0.0
03 23:35 Calm 16.09 Fair CLR 11 5 67% 75.49 0.0
03 23:15 Calm 16.09 Fair CLR 12 4 58% 75.51 0.0
03 22:55 Calm 16.09 Fair CLR 12 3 54% 75.54 0.0
03 22:35 Calm 16.09 Fair CLR 13 3 51% 75.54 0.0
03 22:15 Calm 16.09 Fair CLR 15 3 45% 75.57 0.0
03 21:55 Calm 16.09 Fair CLR 15 4 48% 75.57 0.0
03 21:35 Calm 16.09 Fair CLR 15 3 45% 75.57 0.0
03 21:15 Calm 16.09 Fair CLR 15 3 45% 75.54 0.0
03 20:55 SW 9 16.09 Fair CLR 18 2 34% 75.57 0.0
03 20:35 SW 9 16.09 Fair CLR 19 2 32% 75.57 0.0
03 20:15 SW 11 16.09 Fair CLR 20 2 30% 75.59 0.0
03 19:55 W 6 16.09 Fair CLR 21 2 29% 75.62 0.0
03 19:35 W 11 16.09 Fair CLR 22 2 27% 75.64 0.0
03 19:15 W 15 16.09 Fair CLR 22 2 27% 75.64 0.0
03 18:55 NW 17 16.09 Fair CLR 22 3 29% 75.67 0.0
03 18:35 SW 9 16.09 Fair CLR 22 2 27% 75.69 0.0
03 18:15 NW 11 G 20 16.09 Fair CLR 22 2 27% 75.69 0.0
03 17:35 W 15 16.09 Fair CLR 22 2 27% 75.69 0.0
03 17:15 W 15 16.09 Fair CLR 22 2 27% 75.72 0.0
03 16:55 NW 20 16.09 Fair CLR 22 3 29% 75.72 0.0
03 16:35 Calm 16.09 Fair CLR 22 2 27% 75.74 0.0
03 16:15 NW 17 G 26 16.09 Fair CLR 22 2 27% 75.77 0.0
03 15:55 Vrbl 6 G 24 16.09 Fair CLR 22 2 27% 75.79 0.0
03 15:35 NE 9 G 20 16.09 Fair CLR 22 2 27% 75.82 0.0
03 15:15 Vrbl 9 G 24 16.09 Fair CLR 22 2 27% 75.84 0.0
03 14:55 NW 19 G 31 16.09 Fair CLR 22 2 27% 75.84 0.0
03 14:35 Vrbl 9 G 24 16.09 Fair CLR 22 2 27% 75.84 0.0
03 14:15 NW 15 16.09 Fair CLR 22 2 27% 75.87 0.0
03 13:55 Vrbl 11 G 26 16.09 Fair CLR 21 2 29% 75.9 0.0
03 13:35 NW 15 16.09 Fair CLR 21 2 29% 75.92 0.0
03 13:15 NW 17 16.09 Fair CLR 21 2 29% 75.92 0.0
03 12:55 N 7 G 19 16.09 Fair CLR 20 2 30% 75.97 0.0
03 12:35 NW 11 G 24 16.09 Fair CLR 20 3 33% 75.97 0.0
03 12:15 W 7 G 19 16.09 Fair CLR 20 2 30% 76 0.0
03 11:55 N 17 16.09 Fair CLR 20 2 30% 76 0.0
03 11:35 NE 13 16.09 Fair CLR 19 2 32% 76 0.0
03 11:15 Vrbl 9 G 22 16.09 Fair CLR 19 3 35% 76 0.0
03 10:55 NE 11 16.09 Fair CLR 19 3 35% 76 0.0
03 10:35 Vrbl 11 16.09 Fair CLR 19 3 35% 76 0.0
03 10:15 NE 11 G 22 16.09 Fair CLR 18 3 37% 76.02 0.0
03 09:55 Vrbl 11 G 24 16.09 Fair CLR 17 4 42% 75.97 0.0
03 09:35 N 17 16.09 Fair CLR 16 4 45% 75.97 0.0
03 09:15 N 20 16.09 Fair CLR 15 3 45% 75.97 0.0
03 08:55 NW 13 16.09 Fair CLR 14 4 51% 76 0.0
03 08:35 NW 19 16.09 Fair CLR 14 4 51% 75.97 0.0
03 08:15 NW 13 16.09 Fair CLR 12 4 58% 75.95 0.0
03 07:55 NW 13 16.09 Fair CLR 9 3 66% 7 75.92 0.0
03 07:35 W 11 16.09 Fair CLR 9 3 66% 8 75.9 0.0
03 07:15 NW 13 16.09 Fair CLR 8 3 71% 6 75.9 0.0
03 06:55 NW 13 16.09 Fair CLR 8 3 71% 6 75.87 0.0
03 06:35 NW 13 16.09 Fair CLR 8 2 66% 6 75.87 0.0
03 06:15 NW 7 16.09 Fair CLR 9 2 62% 8 75.84 0.0
03 05:55 NW 13 16.09 Fair CLR 9 2 62% 7 75.87 0.0
03 05:35 W 17 16.09 Fair CLR 10 2 58% 8 75.84 0.0
03 05:15 W 17 16.09 Fair CLR 9 2 62% 7 75.84 0.0
03 04:55 NW 15 16.09 Fair CLR 9 2 62% 7 75.84 0.0
03 04:35 W 13 16.09 Fair CLR 9 1 58% 7 75.82 0.0
Date Time (cdt) Wind (kph) Vis. (km) Weather Sky Cond. Air Dwpt Max. Min. Relative Humidity Wind Chill (°C) Heat Index (°C) altimeter (cm) sea level (mb) 1 hr 3 hr 6 hr
6 hour
Temperature (ºC) Pressure Precipitation (cm)